This is the latest recevied weather packets stored in our database for station/object DK4DO-10. If no packets are shown the sender has not sent any weather packets the latest 1 day(s).
| Time | Temp. | Humidity | Pressure | Rain* | Wind** | Luminosity | Snow |
|---|---|---|---|---|---|---|---|
| 1777738988 | 25.56° C | 32% | 1009.5 hPa | - | - | - | - |
| 1777738388 | 25.56° C | 32% | 1009.5 hPa | - | - | - | - |
| 1777737788 | 25.56° C | 32% | 1009.6 hPa | - | - | - | - |
| 1777737188 | 25.56° C | 31% | 1009.7 hPa | - | - | - | - |
| 1777736588 | 25.56° C | 31% | 1009.8 hPa | - | - | - | - |
| 1777735987 | 25° C | 30% | 1009.7 hPa | - | - | - | - |
| 1777735387 | 24.44° C | 29% | 1009.7 hPa | - | - | - | - |
| 1777734787 | 24.44° C | 28% | 1009.9 hPa | - | - | - | - |
| 1777734187 | 23.89° C | 28% | 1009.6 hPa | - | - | - | - |
| 1777733587 | 22.78° C | 30% | 1010.8 hPa | - | - | - | - |
| 1777732986 | 23.33° C | 29% | 1010.9 hPa | - | - | - | - |
| 1777732386 | 25° C | 26% | 1010.8 hPa | - | - | - | - |
| 1777731786 | 25.56° C | 24% | 1010.8 hPa | - | - | - | - |
| 1777731186 | 26.67° C | 23% | 1010.8 hPa | - | - | - | - |
| 1777730585 | 27.78° C | 21% | 1010.6 hPa | - | - | - | - |
| 1777729985 | 28.33° C | 20% | 1010.5 hPa | - | - | - | - |
| 1777729385 | 28.89° C | 20% | 1010.5 hPa | - | - | - | - |
| 1777728785 | 28.89° C | 20% | 1010.6 hPa | - | - | - | - |
| 1777726984 | 27.22° C | 22% | 1010.9 hPa | - | - | - | - |
| 1777726385 | 26.11° C | 24% | 1011 hPa | - | - | - | - |
| 1777725785 | 25.56° C | 23% | 1011.1 hPa | - | - | - | - |
| 1777725183 | 25° C | 24% | 1011.3 hPa | - | - | - | - |
| 1777724583 | 25° C | 25% | 1011.3 hPa | - | - | - | - |
| 1777723980 | 25° C | 24% | 1011.6 hPa | - | - | - | - |
| 1777723379 | 24.44° C | 26% | 1011.6 hPa | - | - | - | - |
* Rain since midnight (hover to see other rain measurements)
** Current wind speed in m/s (hover to see current wind gust speed)